TGW283 WADD-WSSS
Flight info
| Callsign | TGW283 |
|---|---|
| Flight time | N/A |
| Altitude | 40000 |
| Route | BORGI DCT UDONO M635 SURGA T23 UGEBO UGEBO1A |
| Aircraft | B789/H-SDE1E2E3FGHIJ2J3J4J5M1RWXY/LB1D1 |
Departure
| Time | 2026-05-05 11:56 |
|---|---|
| Airport | Denpasar I Gusti Ngurah Rai International Airport (WADD) |
Arrival
| Time | N/A |
|---|---|
| Airport | Singapore Changi Airport (WSSS) |
| Time | Latitude | Longitude | Altitude | Speed | Heading |
|---|---|---|---|---|---|
| 2026-05-05 11:40 | -8.74550 | 115.16934 | 38 ft | 0 kts | 358° |
| 2026-05-05 11:46 | -8.74564 | 115.16934 | 38 ft | 3 kts | 358° |
| 2026-05-05 11:46 | -8.74583 | 115.16935 | 38 ft | 3 kts | 358° |
| 2026-05-05 11:46 | -8.74602 | 115.16936 | 38 ft | 3 kts | 358° |
| 2026-05-05 11:47 | -8.74620 | 115.16937 | 35 ft | 3 kts | 358° |
| 2026-05-05 11:47 | -8.74638 | 115.16938 | 37 ft | 0 kts | 358° |
| 2026-05-05 11:51 | -8.74632 | 115.16936 | 37 ft | 0 kts | 339° |
| 2026-05-05 11:51 | -8.74628 | 115.16931 | 37 ft | 1 kts | 308° |
| 2026-05-05 11:52 | -8.74629 | 115.16919 | 37 ft | 3 kts | 257° |
| 2026-05-05 11:52 | -8.74654 | 115.16878 | 38 ft | 13 kts | 238° |
| 2026-05-05 11:52 | -8.74693 | 115.16765 | 37 ft | 19 kts | 282° |
| 2026-05-05 11:52 | -8.74683 | 115.16634 | 35 ft | 19 kts | 266° |
| 2026-05-05 11:53 | -8.74689 | 115.16500 | 38 ft | 19 kts | 268° |
| 2026-05-05 11:53 | -8.74694 | 115.16363 | 38 ft | 20 kts | 268° |
| 2026-05-05 11:53 | -8.74700 | 115.16222 | 38 ft | 20 kts | 268° |
| 2026-05-05 11:53 | -8.74704 | 115.16077 | 38 ft | 21 kts | 268° |
| 2026-05-05 11:54 | -8.74712 | 115.15928 | 38 ft | 22 kts | 266° |
| 2026-05-05 11:54 | -8.74718 | 115.15775 | 38 ft | 22 kts | 268° |
| 2026-05-05 11:54 | -8.74724 | 115.15618 | 38 ft | 23 kts | 268° |
| 2026-05-05 11:54 | -8.74731 | 115.15463 | 38 ft | 17 kts | 266° |
| 2026-05-05 11:55 | -8.74783 | 115.15391 | 37 ft | 13 kts | 195° |
| 2026-05-05 11:55 | -8.74875 | 115.15404 | 34 ft | 13 kts | 139° |
| 2026-05-05 11:55 | -8.74895 | 115.15477 | 34 ft | 11 kts | 87° |
| 2026-05-05 11:55 | -8.74891 | 115.15561 | 34 ft | 15 kts | 88° |
| 2026-05-05 11:56 | -8.74883 | 115.15767 | 33 ft | 57 kts | 88° |
| 2026-05-05 11:56 | -8.74857 | 115.16397 | 34 ft | 123 kts | 88° |
| 2026-05-05 11:56 | -8.74814 | 115.17464 | 86 ft | 175 kts | 90° |
| 2026-05-05 11:56 | -8.74740 | 115.18633 | 1123 ft | 153 kts | 87° |
| 2026-05-05 11:57 | -8.74673 | 115.19750 | 1858 ft | 169 kts | 91° |
| 2026-05-05 11:57 | -8.74666 | 115.21016 | 2436 ft | 195 kts | 90° |
| 2026-05-05 11:57 | -8.74617 | 115.22498 | 3021 ft | 226 kts | 89° |
| 2026-05-05 11:57 | -8.74547 | 115.24189 | 3684 ft | 255 kts | 88° |
| 2026-05-05 11:58 | -8.74466 | 115.26008 | 4800 ft | 261 kts | 88° |
| 2026-05-05 11:58 | -8.74110 | 115.27824 | 5828 ft | 269 kts | 60° |
| 2026-05-05 11:58 | -8.72833 | 115.29185 | 6918 ft | 277 kts | 34° |
| 2026-05-05 11:58 | -8.71013 | 115.29852 | 7965 ft | 285 kts | 6° |
| 2026-05-05 11:59 | -8.69026 | 115.29573 | 8992 ft | 296 kts | 337° |
| 2026-05-05 11:59 | -8.67309 | 115.28387 | 9931 ft | 305 kts | 320° |
| 2026-05-05 11:59 | -8.65692 | 115.26909 | 10543 ft | 325 kts | 317° |
| 2026-05-05 11:59 | -8.63963 | 115.25281 | 10898 ft | 352 kts | 318° |
| 2026-05-05 12:00 | -8.62062 | 115.23582 | 11301 ft | 374 kts | 319° |
| 2026-05-05 12:00 | -8.60092 | 115.21862 | 12284 ft | 376 kts | 319° |
| 2026-05-05 12:00 | -8.58110 | 115.20100 | 13189 ft | 381 kts | 318° |
| 2026-05-05 12:00 | -8.56141 | 115.18329 | 14062 ft | 386 kts | 318° |
| 2026-05-05 12:01 | -8.54121 | 115.16524 | 14893 ft | 390 kts | 318° |
| 2026-05-05 12:01 | -8.52071 | 115.14702 | 15733 ft | 394 kts | 318° |
| 2026-05-05 12:01 | -8.50007 | 115.12867 | 16575 ft | 397 kts | 318° |
| 2026-05-05 12:01 | -8.47929 | 115.11012 | 17420 ft | 400 kts | 318° |
| 2026-05-05 12:02 | -8.45831 | 115.09142 | 18206 ft | 404 kts | 318° |
| 2026-05-05 12:02 | -8.43714 | 115.07257 | 18853 ft | 408 kts | 319° |
| 2026-05-05 12:02 | -8.41571 | 115.05349 | 19467 ft | 413 kts | 319° |
| 2026-05-05 12:02 | -8.39404 | 115.03419 | 20075 ft | 417 kts | 319° |
| 2026-05-05 12:03 | -8.37215 | 115.01470 | 20681 ft | 422 kts | 319° |
| 2026-05-05 12:03 | -8.35004 | 114.99502 | 21264 ft | 426 kts | 319° |
| 2026-05-05 12:03 | -8.32768 | 114.97512 | 21846 ft | 430 kts | 319° |
| 2026-05-05 12:03 | -8.30508 | 114.95500 | 22398 ft | 435 kts | 319° |
| 2026-05-05 12:04 | -8.28228 | 114.93472 | 22933 ft | 439 kts | 319° |
| 2026-05-05 12:04 | -8.25924 | 114.91423 | 23453 ft | 443 kts | 319° |
| 2026-05-05 12:04 | -8.23602 | 114.89357 | 23898 ft | 446 kts | 319° |
| 2026-05-05 12:04 | -8.21268 | 114.87281 | 24371 ft | 449 kts | 319° |
| 2026-05-05 12:05 | -8.18922 | 114.85194 | 24813 ft | 451 kts | 319° |
| 2026-05-05 12:05 | -8.16558 | 114.83093 | 25259 ft | 454 kts | 319° |
| 2026-05-05 12:05 | -8.14184 | 114.80983 | 25699 ft | 456 kts | 318° |
| 2026-05-05 12:05 | -8.11798 | 114.78862 | 26145 ft | 458 kts | 318° |
| 2026-05-05 12:06 | -8.09428 | 114.76756 | 26574 ft | 461 kts | 318° |
| 2026-05-05 12:06 | -8.07012 | 114.74610 | 27000 ft | 464 kts | 318° |
| 2026-05-05 12:06 | -8.04583 | 114.72453 | 27438 ft | 466 kts | 318° |
| 2026-05-05 12:06 | -8.02137 | 114.70280 | 27864 ft | 469 kts | 318° |
| 2026-05-05 12:07 | -7.99681 | 114.68099 | 28286 ft | 471 kts | 318° |
| 2026-05-05 12:07 | -7.97208 | 114.65903 | 28699 ft | 475 kts | 318° |
| 2026-05-05 12:07 | -7.94722 | 114.63696 | 29119 ft | 477 kts | 318° |
| 2026-05-05 12:07 | -7.92221 | 114.61477 | 29509 ft | 480 kts | 318° |
| 2026-05-05 12:08 | -7.89703 | 114.59242 | 29894 ft | 483 kts | 317° |
| 2026-05-05 12:08 | -7.87172 | 114.56997 | 30275 ft | 485 kts | 317° |
| 2026-05-05 12:08 | -7.84664 | 114.54771 | 30604 ft | 487 kts | 317° |
| 2026-05-05 12:08 | -7.82112 | 114.52508 | 30944 ft | 489 kts | 318° |
| 2026-05-05 12:09 | -7.79547 | 114.50234 | 31279 ft | 491 kts | 318° |
| 2026-05-05 12:09 | -7.76972 | 114.47950 | 31609 ft | 493 kts | 318° |
| 2026-05-05 12:09 | -7.74391 | 114.45662 | 31919 ft | 495 kts | 318° |
| 2026-05-05 12:09 | -7.71800 | 114.43365 | 32235 ft | 497 kts | 318° |
| 2026-05-05 12:10 | -7.69196 | 114.41058 | 32538 ft | 499 kts | 318° |
| 2026-05-05 12:10 | -7.66583 | 114.38742 | 32833 ft | 501 kts | 318° |
| 2026-05-05 12:10 | -7.63961 | 114.36419 | 33119 ft | 502 kts | 318° |
| 2026-05-05 12:10 | -7.61335 | 114.34094 | 33528 ft | 501 kts | 318° |
| 2026-05-05 12:11 | -7.58721 | 114.31779 | 33978 ft | 499 kts | 318° |
| 2026-05-05 12:11 | -7.56096 | 114.29495 | 34357 ft | 497 kts | 323° |
| 2026-05-05 12:11 | -7.53339 | 114.27474 | 34678 ft | 497 kts | 323° |
| 2026-05-05 12:11 | -7.50534 | 114.25447 | 35058 ft | 495 kts | 324° |
| 2026-05-05 12:12 | -7.47743 | 114.23426 | 35442 ft | 493 kts | 323° |
| 2026-05-05 12:12 | -7.44970 | 114.21406 | 35826 ft | 491 kts | 323° |
| 2026-05-05 12:12 | -7.42204 | 114.19394 | 36199 ft | 490 kts | 323° |
| 2026-05-05 12:12 | -7.39445 | 114.17393 | 36570 ft | 488 kts | 323° |
| 2026-05-05 12:13 | -7.36683 | 114.15391 | 36938 ft | 487 kts | 323° |
| 2026-05-05 12:13 | -7.33940 | 114.13399 | 37292 ft | 486 kts | 323° |
| 2026-05-05 12:13 | -7.31206 | 114.11413 | 37651 ft | 484 kts | 323° |
| 2026-05-05 12:13 | -7.28468 | 114.09427 | 37982 ft | 483 kts | 323° |
| 2026-05-05 12:14 | -7.25736 | 114.07446 | 38288 ft | 483 kts | 323° |
| 2026-05-05 12:14 | -7.23012 | 114.05470 | 38594 ft | 482 kts | 323° |
| 2026-05-05 12:14 | -7.20292 | 114.03497 | 38840 ft | 482 kts | 323° |
| 2026-05-05 12:14 | -7.17570 | 114.01523 | 39086 ft | 481 kts | 323° |
| 2026-05-05 12:15 | -7.14891 | 113.99581 | 39315 ft | 481 kts | 323° |
| 2026-05-05 12:15 | -7.12170 | 113.97609 | 39555 ft | 481 kts | 323° |
| 2026-05-05 12:15 | -7.09459 | 113.95644 | 39795 ft | 480 kts | 323° |
| 2026-05-05 12:15 | -7.06740 | 113.93674 | 39874 ft | 483 kts | 323° |
| 2026-05-05 12:16 | -7.01274 | 113.89713 | 39879 ft | 482 kts | 323° |
| 2026-05-05 12:16 | -6.95840 | 113.85779 | 39879 ft | 480 kts | 323° |
| 2026-05-05 12:17 | -6.90413 | 113.81851 | 39879 ft | 481 kts | 323° |
| 2026-05-05 12:17 | -6.85010 | 113.77941 | 39878 ft | 480 kts | 323° |
| 2026-05-05 12:18 | -6.79583 | 113.74016 | 39878 ft | 480 kts | 323° |
| 2026-05-05 12:18 | -6.74165 | 113.70098 | 39874 ft | 479 kts | 323° |
| 2026-05-05 12:19 | -6.68745 | 113.66179 | 39874 ft | 479 kts | 323° |
| 2026-05-05 12:19 | -6.63334 | 113.62269 | 39871 ft | 479 kts | 323° |
| 2026-05-05 12:20 | -6.57931 | 113.58364 | 39870 ft | 478 kts | 323° |
| 2026-05-05 12:20 | -6.52528 | 113.54462 | 39870 ft | 478 kts | 323° |
| 2026-05-05 12:21 | -6.47163 | 113.50587 | 39873 ft | 478 kts | 323° |
| 2026-05-05 12:21 | -6.41757 | 113.46685 | 39874 ft | 478 kts | 323° |
| 2026-05-05 12:22 | -6.36351 | 113.42782 | 39874 ft | 478 kts | 323° |
| 2026-05-05 12:22 | -6.30946 | 113.38881 | 39874 ft | 478 kts | 323° |
| 2026-05-05 12:23 | -6.25613 | 113.34906 | 39891 ft | 475 kts | 315° |
| 2026-05-05 12:23 | -6.22042 | 113.30712 | 39887 ft | 477 kts | 307° |
| 2026-05-05 12:24 | -6.17977 | 113.25436 | 39892 ft | 476 kts | 307° |
| 2026-05-05 12:24 | -6.13958 | 113.20194 | 39893 ft | 476 kts | 307° |
| 2026-05-05 12:25 | -6.09905 | 113.14925 | 39895 ft | 476 kts | 307° |
| 2026-05-05 12:25 | -6.05856 | 113.09652 | 39899 ft | 476 kts | 307° |
| 2026-05-05 12:26 | -6.01803 | 113.04382 | 39897 ft | 476 kts | 307° |
| 2026-05-05 12:26 | -5.97750 | 112.99110 | 39902 ft | 476 kts | 307° |
| 2026-05-05 12:27 | -5.93693 | 112.93836 | 39902 ft | 477 kts | 307° |
| 2026-05-05 12:27 | -5.89661 | 112.88595 | 39899 ft | 476 kts | 307° |
| 2026-05-05 12:28 | -5.85609 | 112.83329 | 39900 ft | 476 kts | 308° |
| 2026-05-05 12:28 | -5.81554 | 112.78062 | 39900 ft | 476 kts | 308° |
| 2026-05-05 12:29 | -5.77493 | 112.72788 | 39902 ft | 477 kts | 308° |
| 2026-05-05 12:29 | -5.73428 | 112.67510 | 39902 ft | 478 kts | 308° |
| 2026-05-05 12:30 | -5.69386 | 112.62263 | 39901 ft | 478 kts | 308° |
| 2026-05-05 12:30 | -5.65315 | 112.56980 | 39902 ft | 478 kts | 308° |
| 2026-05-05 12:31 | -5.61242 | 112.51695 | 39900 ft | 478 kts | 308° |
| 2026-05-05 12:31 | -5.57167 | 112.46410 | 39901 ft | 479 kts | 308° |
| 2026-05-05 12:32 | -5.53087 | 112.41119 | 39897 ft | 479 kts | 308° |
| 2026-05-05 12:32 | -5.49005 | 112.35827 | 39897 ft | 479 kts | 308° |
| 2026-05-05 12:33 | -5.44938 | 112.30556 | 39903 ft | 479 kts | 308° |
| 2026-05-05 12:33 | -5.40856 | 112.25266 | 39900 ft | 479 kts | 308° |
| 2026-05-05 12:34 | -5.36772 | 112.19976 | 39900 ft | 479 kts | 308° |
| 2026-05-05 12:34 | -5.32683 | 112.14679 | 39902 ft | 479 kts | 309° |
| 2026-05-05 12:35 | -5.28592 | 112.09384 | 39901 ft | 480 kts | 309° |
| 2026-05-05 12:35 | -5.24529 | 112.04123 | 39899 ft | 480 kts | 309° |
| 2026-05-05 12:36 | -5.20430 | 111.98819 | 39900 ft | 480 kts | 309° |
| 2026-05-05 12:36 | -5.16338 | 111.93523 | 39900 ft | 480 kts | 309° |
| 2026-05-05 12:37 | -5.12248 | 111.88234 | 39897 ft | 479 kts | 309° |
| 2026-05-05 12:37 | -5.08160 | 111.82947 | 39899 ft | 479 kts | 309° |
| 2026-05-05 12:38 | -5.04098 | 111.77695 | 39900 ft | 480 kts | 309° |
| 2026-05-05 12:38 | -4.99996 | 111.72391 | 39899 ft | 480 kts | 309° |
| 2026-05-05 12:39 | -4.95897 | 111.67094 | 39899 ft | 481 kts | 309° |
| 2026-05-05 12:39 | -4.91793 | 111.61792 | 39897 ft | 481 kts | 309° |
| 2026-05-05 12:40 | -4.87679 | 111.56478 | 39898 ft | 482 kts | 309° |
| 2026-05-05 12:40 | -4.83566 | 111.51165 | 39898 ft | 482 kts | 309° |
| 2026-05-05 12:41 | -4.79470 | 111.45877 | 39898 ft | 483 kts | 309° |
| 2026-05-05 12:41 | -4.75340 | 111.40545 | 39893 ft | 484 kts | 309° |
| 2026-05-05 12:42 | -4.71211 | 111.35216 | 39897 ft | 483 kts | 309° |
| 2026-05-05 12:42 | -4.67083 | 111.29889 | 39896 ft | 483 kts | 309° |
| 2026-05-05 12:43 | -4.62957 | 111.24568 | 39895 ft | 483 kts | 309° |
| 2026-05-05 12:43 | -4.58841 | 111.19240 | 39894 ft | 484 kts | 309° |
| 2026-05-05 12:44 | -4.54757 | 111.13925 | 39895 ft | 483 kts | 309° |
| 2026-05-05 12:44 | -4.50640 | 111.08589 | 39899 ft | 484 kts | 309° |
| 2026-05-05 12:45 | -4.46525 | 111.03243 | 39897 ft | 484 kts | 309° |
| 2026-05-05 12:45 | -4.42403 | 110.97898 | 39897 ft | 484 kts | 309° |
| 2026-05-05 12:46 | -4.38279 | 110.92547 | 39900 ft | 484 kts | 309° |
| 2026-05-05 12:46 | -4.34155 | 110.87198 | 39899 ft | 485 kts | 309° |
| 2026-05-05 12:47 | -4.30059 | 110.81886 | 39899 ft | 484 kts | 309° |
| 2026-05-05 12:47 | -4.25940 | 110.76545 | 39900 ft | 484 kts | 309° |
| 2026-05-05 12:48 | -4.21816 | 110.71200 | 39902 ft | 484 kts | 309° |
| 2026-05-05 12:48 | -4.17689 | 110.65852 | 39900 ft | 485 kts | 309° |
| 2026-05-05 12:49 | -4.13549 | 110.60488 | 39903 ft | 486 kts | 309° |
| 2026-05-05 12:49 | -4.09431 | 110.55152 | 39901 ft | 487 kts | 309° |
| 2026-05-05 12:50 | -4.05284 | 110.49780 | 39902 ft | 486 kts | 309° |
| 2026-05-05 12:50 | -4.01149 | 110.44425 | 39899 ft | 486 kts | 309° |
| 2026-05-05 12:51 | -3.97011 | 110.39069 | 39899 ft | 486 kts | 309° |
| 2026-05-05 12:51 | -3.92632 | 110.33915 | 39898 ft | 486 kts | 311° |
| 2026-05-05 12:52 | -3.88245 | 110.28761 | 39901 ft | 486 kts | 312° |
| 2026-05-05 12:52 | -3.83823 | 110.23633 | 39896 ft | 486 kts | 312° |
| 2026-05-05 12:53 | -3.79450 | 110.18522 | 39897 ft | 486 kts | 312° |
| 2026-05-05 12:53 | -3.75034 | 110.13388 | 39897 ft | 487 kts | 312° |
| 2026-05-05 12:54 | -3.68401 | 110.05658 | 39898 ft | 487 kts | 312° |
| 2026-05-05 12:55 | -3.63983 | 110.00514 | 39898 ft | 487 kts | 312° |
| 2026-05-05 12:55 | -3.59562 | 109.95366 | 39901 ft | 487 kts | 312° |
| 2026-05-05 12:56 | -3.55139 | 109.90218 | 39897 ft | 488 kts | 311° |
| 2026-05-05 12:56 | -3.50707 | 109.85059 | 39899 ft | 489 kts | 311° |
| 2026-05-05 12:57 | -3.46300 | 109.79930 | 39900 ft | 488 kts | 311° |
| 2026-05-05 12:57 | -3.41865 | 109.74770 | 39901 ft | 489 kts | 311° |
| 2026-05-05 12:58 | -3.37430 | 109.69612 | 39900 ft | 488 kts | 311° |
| 2026-05-05 12:58 | -3.33002 | 109.64460 | 39899 ft | 489 kts | 311° |
| 2026-05-05 12:59 | -3.28558 | 109.59292 | 39898 ft | 489 kts | 311° |
| 2026-05-05 12:59 | -3.24154 | 109.54170 | 39899 ft | 488 kts | 311° |
| 2026-05-05 13:00 | -3.17515 | 109.46451 | 39894 ft | 487 kts | 311° |
| 2026-05-05 13:01 | -3.08672 | 109.36173 | 39892 ft | 488 kts | 311° |
| 2026-05-05 13:01 | -3.04241 | 109.31025 | 39896 ft | 488 kts | 311° |
| 2026-05-05 13:02 | -2.99815 | 109.25882 | 39895 ft | 487 kts | 311° |
| 2026-05-05 13:02 | -2.95424 | 109.20780 | 39887 ft | 487 kts | 311° |
| 2026-05-05 13:03 | -2.91008 | 109.15650 | 39887 ft | 486 kts | 311° |
| 2026-05-05 13:03 | -2.86589 | 109.10525 | 39885 ft | 487 kts | 311° |
| 2026-05-05 13:04 | -2.82151 | 109.05400 | 39890 ft | 487 kts | 311° |
| 2026-05-05 13:04 | -2.77711 | 109.00259 | 39896 ft | 488 kts | 311° |
| 2026-05-05 13:05 | -2.73261 | 108.95115 | 39892 ft | 488 kts | 311° |
| 2026-05-05 13:05 | -2.68845 | 108.90007 | 39893 ft | 488 kts | 311° |
| 2026-05-05 13:06 | -2.64404 | 108.84874 | 39895 ft | 487 kts | 311° |
| 2026-05-05 13:06 | -2.59970 | 108.79747 | 39894 ft | 486 kts | 311° |
| 2026-05-05 13:07 | -2.55548 | 108.74636 | 39893 ft | 485 kts | 311° |
| 2026-05-05 13:07 | -2.51125 | 108.69524 | 39891 ft | 486 kts | 311° |
| 2026-05-05 13:08 | -2.46702 | 108.64409 | 39892 ft | 487 kts | 311° |
| 2026-05-05 13:08 | -2.42307 | 108.59303 | 39891 ft | 488 kts | 311° |
| 2026-05-05 13:09 | -2.37864 | 108.54154 | 39894 ft | 489 kts | 311° |
| 2026-05-05 13:09 | -2.33423 | 108.49002 | 39897 ft | 488 kts | 311° |
| 2026-05-05 13:10 | -2.28995 | 108.43869 | 39893 ft | 487 kts | 311° |
| 2026-05-05 13:10 | -2.24579 | 108.38748 | 39889 ft | 486 kts | 311° |
| 2026-05-05 13:11 | -2.20911 | 108.34496 | 39889 ft | 486 kts | 311° |
| 2026-05-05 13:11 | -2.15764 | 108.28530 | 39890 ft | 487 kts | 311° |
| 2026-05-05 13:12 | -2.11330 | 108.23392 | 39890 ft | 488 kts | 311° |
| 2026-05-05 13:12 | -2.07638 | 108.19112 | 39898 ft | 488 kts | 311° |
| 2026-05-05 13:13 | -2.03197 | 108.13965 | 39902 ft | 489 kts | 311° |
| 2026-05-05 13:13 | -1.98759 | 108.08816 | 39896 ft | 487 kts | 311° |
| 2026-05-05 13:14 | -1.94362 | 108.03718 | 39893 ft | 486 kts | 311° |
| 2026-05-05 13:14 | -1.89951 | 107.98603 | 39891 ft | 486 kts | 311° |
| 2026-05-05 13:15 | -1.85531 | 107.93478 | 39892 ft | 487 kts | 311° |
| 2026-05-05 13:15 | -1.81105 | 107.88347 | 39894 ft | 488 kts | 311° |
| 2026-05-05 13:16 | -1.76673 | 107.83209 | 39899 ft | 488 kts | 311° |
| 2026-05-05 13:16 | -1.72244 | 107.78076 | 39898 ft | 487 kts | 311° |
| 2026-05-05 13:17 | -1.67844 | 107.72976 | 39894 ft | 486 kts | 311° |
| 2026-05-05 13:17 | -1.63422 | 107.67851 | 39895 ft | 486 kts | 311° |
| 2026-05-05 13:18 | -1.58997 | 107.62723 | 39899 ft | 487 kts | 311° |
| 2026-05-05 13:18 | -1.54568 | 107.57590 | 39904 ft | 488 kts | 311° |
| 2026-05-05 13:19 | -1.50125 | 107.52442 | 39899 ft | 489 kts | 311° |
| 2026-05-05 13:19 | -1.45680 | 107.47292 | 39897 ft | 489 kts | 311° |
| 2026-05-05 13:20 | -1.41274 | 107.42188 | 39897 ft | 488 kts | 311° |
| 2026-05-05 13:20 | -1.36841 | 107.37052 | 39895 ft | 487 kts | 311° |
| 2026-05-05 13:21 | -1.32347 | 107.31972 | 39893 ft | 487 kts | 313° |
| 2026-05-05 13:21 | -1.27837 | 107.26901 | 39897 ft | 488 kts | 312° |
| 2026-05-05 13:22 | -1.23337 | 107.21812 | 39898 ft | 489 kts | 313° |
| 2026-05-05 13:22 | -1.18824 | 107.16733 | 39898 ft | 488 kts | 312° |
| 2026-05-05 13:23 | -1.14353 | 107.11684 | 39897 ft | 487 kts | 312° |
| 2026-05-05 13:23 | -1.09852 | 107.06613 | 39896 ft | 488 kts | 312° |
| 2026-05-05 13:24 | -1.05344 | 107.01527 | 39895 ft | 489 kts | 312° |
| 2026-05-05 13:24 | -1.00822 | 106.96430 | 39899 ft | 490 kts | 312° |
| 2026-05-05 13:25 | -0.96296 | 106.91327 | 39899 ft | 490 kts | 312° |
| 2026-05-05 13:25 | -0.91807 | 106.86266 | 39895 ft | 489 kts | 312° |
| 2026-05-05 13:26 | -0.87296 | 106.81180 | 39896 ft | 488 kts | 312° |
| 2026-05-05 13:26 | -0.82789 | 106.76099 | 39892 ft | 489 kts | 313° |
| 2026-05-05 13:27 | -0.78272 | 106.71008 | 39894 ft | 489 kts | 312° |
| 2026-05-05 13:27 | -0.73750 | 106.65910 | 39896 ft | 490 kts | 312° |
| 2026-05-05 13:28 | -0.69227 | 106.60811 | 39898 ft | 490 kts | 313° |
| 2026-05-05 13:28 | -0.64710 | 106.55720 | 39897 ft | 489 kts | 313° |
| 2026-05-05 13:29 | -0.60072 | 106.50840 | 39917 ft | 485 kts | 320° |
| 2026-05-05 13:29 | -0.55000 | 106.46351 | 39902 ft | 488 kts | 319° |
| 2026-05-05 13:30 | -0.49928 | 106.41838 | 39906 ft | 488 kts | 319° |
| 2026-05-05 13:30 | -0.44852 | 106.37330 | 39904 ft | 487 kts | 319° |
| 2026-05-05 13:31 | -0.39789 | 106.32831 | 39902 ft | 487 kts | 319° |
| 2026-05-05 13:31 | -0.34728 | 106.28335 | 39902 ft | 487 kts | 319° |
| 2026-05-05 13:32 | -0.29661 | 106.23833 | 39905 ft | 488 kts | 319° |
| 2026-05-05 13:32 | -0.24582 | 106.19320 | 39902 ft | 489 kts | 319° |
| 2026-05-05 13:33 | -0.19531 | 106.14833 | 39902 ft | 488 kts | 319° |
| 2026-05-05 13:33 | -0.14452 | 106.10320 | 39897 ft | 488 kts | 319° |
| 2026-05-05 13:34 | -0.09383 | 106.05817 | 39897 ft | 487 kts | 319° |
| 2026-05-05 13:34 | -0.04341 | 106.01338 | 39899 ft | 488 kts | 319° |
| 2026-05-05 13:35 | 0.00749 | 105.96816 | 39901 ft | 489 kts | 319° |
| 2026-05-05 13:35 | 0.05816 | 105.92314 | 39906 ft | 490 kts | 319° |